sensor_id;sensor_type;location;lat;lon;timestamp;temperature;humidity
74153;DHT22;62505;46.070;14.492;2023-03-15T00:01:58;21.70;57.60
74153;DHT22;62505;46.070;14.492;2023-03-15T00:04:26;21.70;57.60
74153;DHT22;62505;46.070;14.492;2023-03-15T00:06:53;21.70;57.60
74153;DHT22;62505;46.070;14.492;2023-03-15T00:09:20;21.70;57.60
74153;DHT22;62505;46.070;14.492;2023-03-15T00:11:49;21.70;57.70
74153;DHT22;62505;46.070;14.492;2023-03-15T00:14:16;21.70;57.60
74153;DHT22;62505;46.070;14.492;2023-03-15T00:16:44;21.70;57.60
74153;DHT22;62505;46.070;14.492;2023-03-15T00:19:12;21.70;57.60
74153;DHT22;62505;46.070;14.492;2023-03-15T00:21:39;21.70;57.60
74153;DHT22;62505;46.070;14.492;2023-03-15T00:24:08;21.70;57.60
74153;DHT22;62505;46.070;14.492;2023-03-15T00:26:36;21.70;57.60
74153;DHT22;62505;46.070;14.492;2023-03-15T00:29:03;21.70;57.60
74153;DHT22;62505;46.070;14.492;2023-03-15T00:31:30;21.70;57.60
74153;DHT22;62505;46.070;14.492;2023-03-15T00:33:58;21.70;57.60
74153;DHT22;62505;46.070;14.492;2023-03-15T00:36:26;21.70;57.60
74153;DHT22;62505;46.070;14.492;2023-03-15T00:38:54;21.70;57.60
74153;DHT22;62505;46.070;14.492;2023-03-15T00:41:22;21.70;57.60
74153;DHT22;62505;46.070;14.492;2023-03-15T00:43:50;21.70;57.60
74153;DHT22;62505;46.070;14.492;2023-03-15T00:46:18;21.70;57.50
74153;DHT22;62505;46.070;14.492;2023-03-15T00:48:47;21.60;57.50
74153;DHT22;62505;46.070;14.492;2023-03-15T00:51:17;21.70;57.60
74153;DHT22;62505;46.070;14.492;2023-03-15T00:53:46;21.70;57.60
74153;DHT22;62505;46.070;14.492;2023-03-15T00:56:16;21.70;57.50
74153;DHT22;62505;46.070;14.492;2023-03-15T00:58:43;21.70;57.60
74153;DHT22;62505;46.070;14.492;2023-03-15T01:01:12;21.70;57.50
74153;DHT22;62505;46.070;14.492;2023-03-15T01:03:40;21.70;57.50
74153;DHT22;62505;46.070;14.492;2023-03-15T01:06:09;21.70;57.60
74153;DHT22;62505;46.070;14.492;2023-03-15T01:08:39;21.70;57.50
74153;DHT22;62505;46.070;14.492;2023-03-15T01:11:08;21.60;57.50
74153;DHT22;62505;46.070;14.492;2023-03-15T01:13:36;21.70;57.50
74153;DHT22;62505;46.070;14.492;2023-03-15T01:16:04;21.70;57.50
74153;DHT22;62505;46.070;14.492;2023-03-15T01:18:31;21.70;57.50
74153;DHT22;62505;46.070;14.492;2023-03-15T01:20:59;21.60;57.50
74153;DHT22;62505;46.070;14.492;2023-03-15T01:23:26;21.60;57.50
74153;DHT22;62505;46.070;14.492;2023-03-15T01:25:54;21.60;57.50
74153;DHT22;62505;46.070;14.492;2023-03-15T01:28:25;21.70;57.50
74153;DHT22;62505;46.070;14.492;2023-03-15T01:30:52;21.60;57.40
74153;DHT22;62505;46.070;14.492;2023-03-15T01:33:19;21.60;57.50
74153;DHT22;62505;46.070;14.492;2023-03-15T01:35:47;21.70;57.50
74153;DHT22;62505;46.070;14.492;2023-03-15T01:38:14;21.60;57.40
74153;DHT22;62505;46.070;14.492;2023-03-15T01:40:42;21.60;57.50
74153;DHT22;62505;46.070;14.492;2023-03-15T01:43:18;21.60;57.50
74153;DHT22;62505;46.070;14.492;2023-03-15T01:46:06;21.60;57.50
74153;DHT22;62505;46.070;14.492;2023-03-15T01:48:36;21.60;57.50
74153;DHT22;62505;46.070;14.492;2023-03-15T01:51:09;21.60;57.50
74153;DHT22;62505;46.070;14.492;2023-03-15T01:53:39;21.60;57.50
74153;DHT22;62505;46.070;14.492;2023-03-15T01:56:08;21.60;57.50
74153;DHT22;62505;46.070;14.492;2023-03-15T01:58:39;21.60;57.40
74153;DHT22;62505;46.070;14.492;2023-03-15T02:01:08;21.60;57.40
74153;DHT22;62505;46.070;14.492;2023-03-15T02:03:37;21.60;57.50
74153;DHT22;62505;46.070;14.492;2023-03-15T02:06:14;21.60;57.40
74153;DHT22;62505;46.070;14.492;2023-03-15T02:08:45;21.60;57.40
74153;DHT22;62505;46.070;14.492;2023-03-15T02:11:15;21.60;58.00
74153;DHT22;62505;46.070;14.492;2023-03-15T02:13:45;21.60;57.40
74153;DHT22;62505;46.070;14.492;2023-03-15T02:16:13;21.60;57.50
74153;DHT22;62505;46.070;14.492;2023-03-15T02:18:40;21.60;57.40
74153;DHT22;62505;46.070;14.492;2023-03-15T02:21:17;21.60;57.40
74153;DHT22;62505;46.070;14.492;2023-03-15T02:23:58;21.60;57.50
74153;DHT22;62505;46.070;14.492;2023-03-15T02:26:35;21.60;57.50
74153;DHT22;62505;46.070;14.492;2023-03-15T02:29:06;21.60;57.50
74153;DHT22;62505;46.070;14.492;2023-03-15T02:31:33;21.60;57.40
74153;DHT22;62505;46.070;14.492;2023-03-15T02:34:03;21.60;57.40
74153;DHT22;62505;46.070;14.492;2023-03-15T02:36:32;21.60;57.40
74153;DHT22;62505;46.070;14.492;2023-03-15T02:38:59;21.60;57.40
74153;DHT22;62505;46.070;14.492;2023-03-15T02:41:30;21.60;57.40
74153;DHT22;62505;46.070;14.492;2023-03-15T02:44:01;21.60;57.40
74153;DHT22;62505;46.070;14.492;2023-03-15T02:46:31;21.60;57.50
74153;DHT22;62505;46.070;14.492;2023-03-15T02:48:59;21.60;57.50
74153;DHT22;62505;46.070;14.492;2023-03-15T02:51:28;21.60;57.50
74153;DHT22;62505;46.070;14.492;2023-03-15T02:53:55;21.60;57.40
74153;DHT22;62505;46.070;14.492;2023-03-15T02:56:22;21.60;57.40
74153;DHT22;62505;46.070;14.492;2023-03-15T02:58:49;21.60;57.40
74153;DHT22;62505;46.070;14.492;2023-03-15T03:01:17;21.60;57.40
74153;DHT22;62505;46.070;14.492;2023-03-15T03:03:46;21.60;57.50
74153;DHT22;62505;46.070;14.492;2023-03-15T03:06:14;21.60;57.40
74153;DHT22;62505;46.070;14.492;2023-03-15T03:08:42;21.60;57.40
74153;DHT22;62505;46.070;14.492;2023-03-15T03:11:12;21.60;57.40
74153;DHT22;62505;46.070;14.492;2023-03-15T03:13:39;21.60;57.50
74153;DHT22;62505;46.070;14.492;2023-03-15T03:16:06;21.60;57.50
74153;DHT22;62505;46.070;14.492;2023-03-15T03:18:33;21.60;57.40
74153;DHT22;62505;46.070;14.492;2023-03-15T03:21:05;21.60;57.40
74153;DHT22;62505;46.070;14.492;2023-03-15T03:23:33;21.60;57.40
74153;DHT22;62505;46.070;14.492;2023-03-15T03:26:01;21.60;58.00
74153;DHT22;62505;46.070;14.492;2023-03-15T03:28:30;21.60;57.40
74153;DHT22;62505;46.070;14.492;2023-03-15T03:30:57;21.60;57.40
74153;DHT22;62505;46.070;14.492;2023-03-15T03:33:25;21.60;57.50
74153;DHT22;62505;46.070;14.492;2023-03-15T03:35:52;21.60;57.40
74153;DHT22;62505;46.070;14.492;2023-03-15T03:38:21;21.60;57.50
74153;DHT22;62505;46.070;14.492;2023-03-15T03:40:48;21.60;57.40
74153;DHT22;62505;46.070;14.492;2023-03-15T03:43:15;21.60;57.40
74153;DHT22;62505;46.070;14.492;2023-03-15T03:45:41;21.60;57.40
74153;DHT22;62505;46.070;14.492;2023-03-15T03:48:08;21.60;57.40
74153;DHT22;62505;46.070;14.492;2023-03-15T03:50:35;21.60;57.40
74153;DHT22;62505;46.070;14.492;2023-03-15T03:53:02;21.60;57.40
74153;DHT22;62505;46.070;14.492;2023-03-15T03:55:31;21.60;57.40
74153;DHT22;62505;46.070;14.492;2023-03-15T03:57:58;21.60;57.40
74153;DHT22;62505;46.070;14.492;2023-03-15T04:00:25;21.60;57.40
74153;DHT22;62505;46.070;14.492;2023-03-15T04:02:52;21.60;57.40
74153;DHT22;62505;46.070;14.492;2023-03-15T04:05:19;21.60;57.40
74153;DHT22;62505;46.070;14.492;2023-03-15T04:07:46;21.60;57.40
74153;DHT22;62505;46.070;14.492;2023-03-15T04:10:13;21.60;57.40
74153;DHT22;62505;46.070;14.492;2023-03-15T04:12:42;21.60;57.40
74153;DHT22;62505;46.070;14.492;2023-03-15T04:15:09;21.60;57.40
74153;DHT22;62505;46.070;14.492;2023-03-15T04:17:37;21.60;57.40
74153;DHT22;62505;46.070;14.492;2023-03-15T04:20:05;21.60;57.40
74153;DHT22;62505;46.070;14.492;2023-03-15T04:22:35;21.60;57.50
74153;DHT22;62505;46.070;14.492;2023-03-15T04:25:02;21.60;57.40
74153;DHT22;62505;46.070;14.492;2023-03-15T04:27:30;21.60;57.40
74153;DHT22;62505;46.070;14.492;2023-03-15T04:29:58;21.60;57.40
74153;DHT22;62505;46.070;14.492;2023-03-15T04:32:29;21.60;57.40
74153;DHT22;62505;46.070;14.492;2023-03-15T04:34:56;21.60;57.40
74153;DHT22;62505;46.070;14.492;2023-03-15T04:37:23;21.60;57.40
74153;DHT22;62505;46.070;14.492;2023-03-15T04:39:50;21.50;57.30
74153;DHT22;62505;46.070;14.492;2023-03-15T04:42:18;21.50;57.40
74153;DHT22;62505;46.070;14.492;2023-03-15T04:44:45;21.60;57.40
74153;DHT22;62505;46.070;14.492;2023-03-15T04:47:13;21.50;57.40
74153;DHT22;62505;46.070;14.492;2023-03-15T04:49:40;21.60;57.40
74153;DHT22;62505;46.070;14.492;2023-03-15T04:52:07;21.50;57.40
74153;DHT22;62505;46.070;14.492;2023-03-15T04:54:34;21.60;57.40
74153;DHT22;62505;46.070;14.492;2023-03-15T04:57:01;21.50;57.40
74153;DHT22;62505;46.070;14.492;2023-03-15T04:59:28;21.50;57.40
74153;DHT22;62505;46.070;14.492;2023-03-15T05:01:55;21.60;57.40
74153;DHT22;62505;46.070;14.492;2023-03-15T05:04:24;21.60;57.40
74153;DHT22;62505;46.070;14.492;2023-03-15T05:06:51;21.50;57.30
74153;DHT22;62505;46.070;14.492;2023-03-15T05:09:18;21.50;57.40
74153;DHT22;62505;46.070;14.492;2023-03-15T05:11:46;21.50;57.40
74153;DHT22;62505;46.070;14.492;2023-03-15T05:14:13;21.50;57.40
74153;DHT22;62505;46.070;14.492;2023-03-15T05:16:40;21.50;57.40
74153;DHT22;62505;46.070;14.492;2023-03-15T05:19:08;21.60;57.60
74153;DHT22;62505;46.070;14.492;2023-03-15T05:21:37;21.50;57.40
74153;DHT22;62505;46.070;14.492;2023-03-15T05:24:04;21.50;57.50
74153;DHT22;62505;46.070;14.492;2023-03-15T05:26:31;21.50;57.60
74153;DHT22;62505;46.070;14.492;2023-03-15T05:28:59;21.60;58.90
74153;DHT22;62505;46.070;14.492;2023-03-15T05:31:26;21.60;59.40
74153;DHT22;62505;46.070;14.492;2023-03-15T05:33:53;21.60;59.90
74153;DHT22;62505;46.070;14.492;2023-03-15T05:36:20;21.60;60.40
74153;DHT22;62505;46.070;14.492;2023-03-15T05:38:49;21.70;60.60
74153;DHT22;62505;46.070;14.492;2023-03-15T05:41:16;21.70;60.70
74153;DHT22;62505;46.070;14.492;2023-03-15T05:43:44;21.70;60.90
74153;DHT22;62505;46.070;14.492;2023-03-15T05:46:11;21.70;61.20
74153;DHT22;62505;46.070;14.492;2023-03-15T05:48:38;21.80;61.40
74153;DHT22;62505;46.070;14.492;2023-03-15T05:51:05;21.70;61.30
74153;DHT22;62505;46.070;14.492;2023-03-15T05:53:33;21.80;61.20
74153;DHT22;62505;46.070;14.492;2023-03-15T05:56:01;21.80;61.50
74153;DHT22;62505;46.070;14.492;2023-03-15T05:58:28;21.80;62.00
74153;DHT22;62505;46.070;14.492;2023-03-15T06:00:55;21.80;61.60
74153;DHT22;62505;46.070;14.492;2023-03-15T06:03:22;21.90;61.50
74153;DHT22;62505;46.070;14.492;2023-03-15T06:05:49;21.90;61.80
74153;DHT22;62505;46.070;14.492;2023-03-15T06:08:16;21.90;61.90
74153;DHT22;62505;46.070;14.492;2023-03-15T06:10:43;21.90;62.00
74153;DHT22;62505;46.070;14.492;2023-03-15T06:13:12;21.90;62.00
74153;DHT22;62505;46.070;14.492;2023-03-15T06:15:39;21.90;61.90
74153;DHT22;62505;46.070;14.492;2023-03-15T06:18:05;21.90;62.00
74153;DHT22;62505;46.070;14.492;2023-03-15T06:20:33;21.90;61.90
74153;DHT22;62505;46.070;14.492;2023-03-15T06:23:00;21.90;61.90
74153;DHT22;62505;46.070;14.492;2023-03-15T06:25:27;21.80;61.70
74153;DHT22;62505;46.070;14.492;2023-03-15T06:27:55;21.90;61.70
74153;DHT22;62505;46.070;14.492;2023-03-15T06:30:23;21.90;61.70
74153;DHT22;62505;46.070;14.492;2023-03-15T06:32:50;21.90;61.70
74153;DHT22;62505;46.070;14.492;2023-03-15T06:35:17;21.90;61.60
74153;DHT22;62505;46.070;14.492;2023-03-15T06:37:45;21.90;61.60
74153;DHT22;62505;46.070;14.492;2023-03-15T06:40:12;21.90;61.50
74153;DHT22;62505;46.070;14.492;2023-03-15T06:42:40;21.80;61.40
74153;DHT22;62505;46.070;14.492;2023-03-15T06:45:08;21.90;61.40
74153;DHT22;62505;46.070;14.492;2023-03-15T06:47:36;21.90;61.30
74153;DHT22;62505;46.070;14.492;2023-03-15T06:50:04;21.90;61.30
74153;DHT22;62505;46.070;14.492;2023-03-15T06:52:32;21.90;61.40
74153;DHT22;62505;46.070;14.492;2023-03-15T06:54:59;21.90;61.30
74153;DHT22;62505;46.070;14.492;2023-03-15T06:57:26;21.90;61.30
74153;DHT22;62505;46.070;14.492;2023-03-15T06:59:53;21.90;61.20
74153;DHT22;62505;46.070;14.492;2023-03-15T07:02:20;21.90;60.90
74153;DHT22;62505;46.070;14.492;2023-03-15T07:04:48;21.90;61.00
74153;DHT22;62505;46.070;14.492;2023-03-15T07:07:15;22.00;60.60
74153;DHT22;62505;46.070;14.492;2023-03-15T07:09:42;22.20;60.20
74153;DHT22;62505;46.070;14.492;2023-03-15T07:12:10;22.30;59.80
74153;DHT22;62505;46.070;14.492;2023-03-15T07:14:37;22.30;59.50
74153;DHT22;62505;46.070;14.492;2023-03-15T07:17:04;22.40;59.20
74153;DHT22;62505;46.070;14.492;2023-03-15T07:19:31;22.50;59.10
74153;DHT22;62505;46.070;14.492;2023-03-15T07:21:59;22.60;58.90
74153;DHT22;62505;46.070;14.492;2023-03-15T07:24:26;22.60;58.80
74153;DHT22;62505;46.070;14.492;2023-03-15T07:26:53;22.70;58.70
74153;DHT22;62505;46.070;14.492;2023-03-15T07:29:21;22.70;58.60
74153;DHT22;62505;46.070;14.492;2023-03-15T07:31:48;22.70;58.60
74153;DHT22;62505;46.070;14.492;2023-03-15T07:34:15;22.80;58.50
74153;DHT22;62505;46.070;14.492;2023-03-15T07:36:42;22.80;58.50
74153;DHT22;62505;46.070;14.492;2023-03-15T07:39:11;22.80;58.40
74153;DHT22;62505;46.070;14.492;2023-03-15T07:41:38;22.80;58.30
74153;DHT22;62505;46.070;14.492;2023-03-15T07:44:05;22.90;58.40
74153;DHT22;62505;46.070;14.492;2023-03-15T07:46:32;22.90;58.30
74153;DHT22;62505;46.070;14.492;2023-03-15T07:48:59;22.90;58.40
74153;DHT22;62505;46.070;14.492;2023-03-15T07:51:26;23.00;58.20
74153;DHT22;62505;46.070;14.492;2023-03-15T07:53:53;23.00;58.20
74153;DHT22;62505;46.070;14.492;2023-03-15T07:56:21;23.00;58.20
74153;DHT22;62505;46.070;14.492;2023-03-15T07:58:48;23.00;58.10
74153;DHT22;62505;46.070;14.492;2023-03-15T08:01:15;23.00;58.00
74153;DHT22;62505;46.070;14.492;2023-03-15T08:03:42;23.10;58.00
74153;DHT22;62505;46.070;14.492;2023-03-15T08:06:09;23.10;57.80
74153;DHT22;62505;46.070;14.492;2023-03-15T08:08:36;23.10;57.80
74153;DHT22;62505;46.070;14.492;2023-03-15T08:11:04;23.10;57.70
74153;DHT22;62505;46.070;14.492;2023-03-15T08:13:32;23.10;57.70
74153;DHT22;62505;46.070;14.492;2023-03-15T08:16:00;23.10;57.60
74153;DHT22;62505;46.070;14.492;2023-03-15T08:18:27;23.20;57.70
74153;DHT22;62505;46.070;14.492;2023-03-15T08:20:54;23.20;57.70
74153;DHT22;62505;46.070;14.492;2023-03-15T08:23:21;23.20;57.60
74153;DHT22;62505;46.070;14.492;2023-03-15T08:25:48;23.20;57.70
74153;DHT22;62505;46.070;14.492;2023-03-15T08:28:15;23.30;57.70
74153;DHT22;62505;46.070;14.492;2023-03-15T08:30:44;23.30;57.70
74153;DHT22;62505;46.070;14.492;2023-03-15T08:33:11;23.30;57.70
74153;DHT22;62505;46.070;14.492;2023-03-15T08:35:38;23.30;57.70
74153;DHT22;62505;46.070;14.492;2023-03-15T08:38:06;23.30;57.70
74153;DHT22;62505;46.070;14.492;2023-03-15T08:40:33;23.30;57.70
74153;DHT22;62505;46.070;14.492;2023-03-15T08:43:00;23.30;57.70
74153;DHT22;62505;46.070;14.492;2023-03-15T08:45:27;23.30;57.70
74153;DHT22;62505;46.070;14.492;2023-03-15T08:47:56;23.40;57.80
74153;DHT22;62505;46.070;14.492;2023-03-15T08:50:25;23.30;57.70
74153;DHT22;62505;46.070;14.492;2023-03-15T08:52:52;23.40;57.80
74153;DHT22;62505;46.070;14.492;2023-03-15T08:55:20;23.40;57.80
74153;DHT22;62505;46.070;14.492;2023-03-15T08:57:47;23.30;57.60
74153;DHT22;62505;46.070;14.492;2023-03-15T09:00:14;23.40;57.40
74153;DHT22;62505;46.070;14.492;2023-03-15T09:03:04;23.40;57.10
74153;DHT22;62505;46.070;14.492;2023-03-15T09:05:31;23.30;57.10
74153;DHT22;62505;46.070;14.492;2023-03-15T09:07:58;23.30;57.30
74153;DHT22;62505;46.070;14.492;2023-03-15T09:10:26;23.30;57.70
74153;DHT22;62505;46.070;14.492;2023-03-15T09:12:53;23.30;57.60
74153;DHT22;62505;46.070;14.492;2023-03-15T09:15:20;23.30;57.80
74153;DHT22;62505;46.070;14.492;2023-03-15T09:17:48;23.30;58.20
74153;DHT22;62505;46.070;14.492;2023-03-15T09:20:18;23.30;58.70
74153;DHT22;62505;46.070;14.492;2023-03-15T09:22:50;23.30;59.50
74153;DHT22;62505;46.070;14.492;2023-03-15T09:25:17;23.40;60.70
74153;DHT22;62505;46.070;14.492;2023-03-15T09:27:44;23.40;61.30
74153;DHT22;62505;46.070;14.492;2023-03-15T09:30:12;23.40;62.90
74153;DHT22;62505;46.070;14.492;2023-03-15T09:32:40;23.40;62.60
74153;DHT22;62505;46.070;14.492;2023-03-15T09:35:11;23.50;62.10
74153;DHT22;62505;46.070;14.492;2023-03-15T09:37:40;23.50;62.30
74153;DHT22;62505;46.070;14.492;2023-03-15T09:40:14;23.50;62.50
74153;DHT22;62505;46.070;14.492;2023-03-15T09:42:55;23.50;62.80
74153;DHT22;62505;46.070;14.492;2023-03-15T09:45:28;23.50;62.70
74153;DHT22;62505;46.070;14.492;2023-03-15T09:48:05;23.40;63.40
74153;DHT22;62505;46.070;14.492;2023-03-15T09:50:36;23.40;64.00
74153;DHT22;62505;46.070;14.492;2023-03-15T09:53:11;23.40;63.60
74153;DHT22;62505;46.070;14.492;2023-03-15T09:55:41;23.40;64.00
74153;DHT22;62505;46.070;14.492;2023-03-15T09:58:12;23.30;63.90
74153;DHT22;62505;46.070;14.492;2023-03-15T10:00:43;23.30;64.90
74153;DHT22;62505;46.070;14.492;2023-03-15T10:03:15;23.30;65.80
74153;DHT22;62505;46.070;14.492;2023-03-15T10:05:46;23.20;65.40
74153;DHT22;62505;46.070;14.492;2023-03-15T10:08:17;23.20;65.70
74153;DHT22;62505;46.070;14.492;2023-03-15T10:10:50;23.20;65.80
74153;DHT22;62505;46.070;14.492;2023-03-15T10:13:26;23.10;67.40
74153;DHT22;62505;46.070;14.492;2023-03-15T10:16:02;23.10;66.60
74153;DHT22;62505;46.070;14.492;2023-03-15T10:18:41;23.10;66.90
74153;DHT22;62505;46.070;14.492;2023-03-15T10:21:20;23.10;66.80
74153;DHT22;62505;46.070;14.492;2023-03-15T10:23:53;23.00;67.30
74153;DHT22;62505;46.070;14.492;2023-03-15T10:26:24;23.10;67.20
74153;DHT22;62505;46.070;14.492;2023-03-15T10:28:53;23.00;68.20
74153;DHT22;62505;46.070;14.492;2023-03-15T10:31:25;23.00;68.40
74153;DHT22;62505;46.070;14.492;2023-03-15T10:33:53;23.00;68.50
74153;DHT22;62505;46.070;14.492;2023-03-15T10:36:22;23.00;68.70
74153;DHT22;62505;46.070;14.492;2023-03-15T10:38:49;23.00;68.30
74153;DHT22;62505;46.070;14.492;2023-03-15T10:41:29;23.00;67.70
74153;DHT22;62505;46.070;14.492;2023-03-15T10:43:58;22.90;66.80
74153;DHT22;62505;46.070;14.492;2023-03-15T10:46:26;22.80;63.70
74153;DHT22;62505;46.070;14.492;2023-03-15T10:48:56;22.80;59.80
74153;DHT22;62505;46.070;14.492;2023-03-15T10:51:26;22.70;59.30
74153;DHT22;62505;46.070;14.492;2023-03-15T10:53:57;22.70;61.50
74153;DHT22;62505;46.070;14.492;2023-03-15T10:56:28;22.70;60.80
74153;DHT22;62505;46.070;14.492;2023-03-15T10:58:57;22.60;59.30
74153;DHT22;62505;46.070;14.492;2023-03-15T11:01:25;22.60;59.20
74153;DHT22;62505;46.070;14.492;2023-03-15T11:04:02;22.60;58.80
74153;DHT22;62505;46.070;14.492;2023-03-15T11:06:40;22.60;58.60
74153;DHT22;62505;46.070;14.492;2023-03-15T11:09:10;22.60;58.80
74153;DHT22;62505;46.070;14.492;2023-03-15T11:12:00;22.60;58.60
74153;DHT22;62505;46.070;14.492;2023-03-15T11:14:34;22.60;58.80
74153;DHT22;62505;46.070;14.492;2023-03-15T11:17:03;22.60;58.80
74153;DHT22;62505;46.070;14.492;2023-03-15T11:19:32;22.60;58.90
74153;DHT22;62505;46.070;14.492;2023-03-15T11:22:01;22.60;58.90
74153;DHT22;62505;46.070;14.492;2023-03-15T11:24:30;22.50;58.90
74153;DHT22;62505;46.070;14.492;2023-03-15T11:27:01;22.60;58.90
74153;DHT22;62505;46.070;14.492;2023-03-15T11:29:31;22.60;59.00
74153;DHT22;62505;46.070;14.492;2023-03-15T11:32:00;22.50;59.00
74153;DHT22;62505;46.070;14.492;2023-03-15T11:34:38;22.50;59.00
74153;DHT22;62505;46.070;14.492;2023-03-15T11:37:15;22.50;59.10
74153;DHT22;62505;46.070;14.492;2023-03-15T11:39:47;22.50;59.10
74153;DHT22;62505;46.070;14.492;2023-03-15T11:42:23;22.50;59.20
74153;DHT22;62505;46.070;14.492;2023-03-15T11:44:54;22.50;59.20
74153;DHT22;62505;46.070;14.492;2023-03-15T11:47:33;22.50;59.20
74153;DHT22;62505;46.070;14.492;2023-03-15T11:50:03;22.50;59.20
74153;DHT22;62505;46.070;14.492;2023-03-15T11:52:31;22.50;59.20
74153;DHT22;62505;46.070;14.492;2023-03-15T11:54:59;22.50;59.20
74153;DHT22;62505;46.070;14.492;2023-03-15T11:57:38;22.50;59.20
74153;DHT22;62505;46.070;14.492;2023-03-15T12:00:24;22.50;59.20
74153;DHT22;62505;46.070;14.492;2023-03-15T12:03:39;22.50;59.20
74153;DHT22;62505;46.070;14.492;2023-03-15T12:08:53;22.50;59.20
74153;DHT22;62505;46.070;14.492;2023-03-15T12:11:38;22.40;59.20
74153;DHT22;62505;46.070;14.492;2023-03-15T12:14:24;22.40;59.20
74153;DHT22;62505;46.070;14.492;2023-03-15T12:17:33;22.40;59.20
74153;DHT22;62505;46.070;14.492;2023-03-15T12:19:56;22.40;59.20
74153;DHT22;62505;46.070;14.492;2023-03-15T12:22:27;22.40;59.20
74153;DHT22;62505;46.070;14.492;2023-03-15T12:24:58;22.40;59.20
74153;DHT22;62505;46.070;14.492;2023-03-15T12:27:28;22.40;59.20
74153;DHT22;62505;46.070;14.492;2023-03-15T12:29:59;22.40;59.20
74153;DHT22;62505;46.070;14.492;2023-03-15T12:32:28;22.40;59.20
74153;DHT22;62505;46.070;14.492;2023-03-15T12:35:12;22.40;59.20
74153;DHT22;62505;46.070;14.492;2023-03-15T12:37:43;22.40;59.20
74153;DHT22;62505;46.070;14.492;2023-03-15T12:40:39;22.40;59.20
74153;DHT22;62505;46.070;14.492;2023-03-15T12:43:13;22.40;59.10
74153;DHT22;62505;46.070;14.492;2023-03-15T12:45:44;22.40;59.10
74153;DHT22;62505;46.070;14.492;2023-03-15T12:48:22;22.40;59.10
74153;DHT22;62505;46.070;14.492;2023-03-15T12:51:00;22.40;59.10
74153;DHT22;62505;46.070;14.492;2023-03-15T12:53:48;22.40;59.10
74153;DHT22;62505;46.070;14.492;2023-03-15T12:56:39;22.40;59.00
74153;DHT22;62505;46.070;14.492;2023-03-15T12:59:32;22.40;59.00
74153;DHT22;62505;46.070;14.492;2023-03-15T13:02:02;22.40;59.00
74153;DHT22;62505;46.070;14.492;2023-03-15T13:04:30;22.40;59.00
74153;DHT22;62505;46.070;14.492;2023-03-15T13:07:16;22.40;58.90
74153;DHT22;62505;46.070;14.492;2023-03-15T13:12:54;22.30;58.90
74153;DHT22;62505;46.070;14.492;2023-03-15T13:15:29;22.40;58.90
74153;DHT22;62505;46.070;14.492;2023-03-15T13:18:04;22.40;58.90
74153;DHT22;62505;46.070;14.492;2023-03-15T13:20:51;22.30;58.80
74153;DHT22;62505;46.070;14.492;2023-03-15T13:23:24;22.30;58.80
74153;DHT22;62505;46.070;14.492;2023-03-15T13:26:11;22.30;58.80
74153;DHT22;62505;46.070;14.492;2023-03-15T13:28:46;22.30;58.80
74153;DHT22;62505;46.070;14.492;2023-03-15T13:31:19;22.40;58.80
74153;DHT22;62505;46.070;14.492;2023-03-15T13:33:47;22.30;58.80
74153;DHT22;62505;46.070;14.492;2023-03-15T13:36:17;22.30;58.80
74153;DHT22;62505;46.070;14.492;2023-03-15T13:38:48;22.30;58.70
74153;DHT22;62505;46.070;14.492;2023-03-15T13:41:17;22.40;58.80
74153;DHT22;62505;46.070;14.492;2023-03-15T13:43:45;22.40;58.70
74153;DHT22;62505;46.070;14.492;2023-03-15T13:46:13;22.30;58.60
74153;DHT22;62505;46.070;14.492;2023-03-15T13:48:42;22.30;58.60
74153;DHT22;62505;46.070;14.492;2023-03-15T13:51:16;22.30;58.60
74153;DHT22;62505;46.070;14.492;2023-03-15T13:53:46;22.30;58.50
74153;DHT22;62505;46.070;14.492;2023-03-15T13:56:17;22.30;59.10
74153;DHT22;62505;46.070;14.492;2023-03-15T13:58:44;22.40;58.60
74153;DHT22;62505;46.070;14.492;2023-03-15T14:01:13;22.40;58.60
74153;DHT22;62505;46.070;14.492;2023-03-15T14:03:42;22.30;58.50
74153;DHT22;62505;46.070;14.492;2023-03-15T14:06:20;22.40;58.60
74153;DHT22;62505;46.070;14.492;2023-03-15T14:08:51;22.40;58.50
74153;DHT22;62505;46.070;14.492;2023-03-15T14:11:32;22.40;58.50
74153;DHT22;62505;46.070;14.492;2023-03-15T14:14:17;22.30;58.40
74153;DHT22;62505;46.070;14.492;2023-03-15T14:16:46;22.40;58.40
74153;DHT22;62505;46.070;14.492;2023-03-15T14:19:18;22.40;58.40
74153;DHT22;62505;46.070;14.492;2023-03-15T14:21:47;22.40;58.40
74153;DHT22;62505;46.070;14.492;2023-03-15T14:24:21;22.40;58.40
74153;DHT22;62505;46.070;14.492;2023-03-15T14:26:52;22.40;58.40
74153;DHT22;62505;46.070;14.492;2023-03-15T14:29:23;22.40;58.40
74153;DHT22;62505;46.070;14.492;2023-03-15T14:31:52;22.40;58.30
74153;DHT22;62505;46.070;14.492;2023-03-15T14:34:29;22.40;58.30
74153;DHT22;62505;46.070;14.492;2023-03-15T14:36:58;22.40;58.30
74153;DHT22;62505;46.070;14.492;2023-03-15T14:39:36;22.40;58.40
74153;DHT22;62505;46.070;14.492;2023-03-15T14:42:04;22.40;58.30
74153;DHT22;62505;46.070;14.492;2023-03-15T14:44:31;22.40;58.30
74153;DHT22;62505;46.070;14.492;2023-03-15T14:46:58;22.40;58.30
74153;DHT22;62505;46.070;14.492;2023-03-15T14:49:26;22.40;58.30
74153;DHT22;62505;46.070;14.492;2023-03-15T14:51:57;22.40;58.30
74153;DHT22;62505;46.070;14.492;2023-03-15T14:54:26;22.40;58.30
74153;DHT22;62505;46.070;14.492;2023-03-15T14:56:55;22.40;58.20
74153;DHT22;62505;46.070;14.492;2023-03-15T14:59:22;22.40;58.20
74153;DHT22;62505;46.070;14.492;2023-03-15T15:01:52;22.50;58.30
74153;DHT22;62505;46.070;14.492;2023-03-15T15:04:20;22.40;58.20
74153;DHT22;62505;46.070;14.492;2023-03-15T15:06:48;22.50;58.20
74153;DHT22;62505;46.070;14.492;2023-03-15T15:09:21;22.50;58.20
74153;DHT22;62505;46.070;14.492;2023-03-15T15:11:49;22.50;58.20
74153;DHT22;62505;46.070;14.492;2023-03-15T15:14:18;22.50;58.20
74153;DHT22;62505;46.070;14.492;2023-03-15T15:16:47;22.50;58.20
74153;DHT22;62505;46.070;14.492;2023-03-15T15:19:15;22.40;58.10
74153;DHT22;62505;46.070;14.492;2023-03-15T15:21:42;22.40;58.10
74153;DHT22;62505;46.070;14.492;2023-03-15T15:24:14;22.50;58.10
74153;DHT22;62505;46.070;14.492;2023-03-15T15:26:41;22.50;58.20
74153;DHT22;62505;46.070;14.492;2023-03-15T15:29:13;22.50;58.10
74153;DHT22;62505;46.070;14.492;2023-03-15T15:31:42;22.50;58.10
74153;DHT22;62505;46.070;14.492;2023-03-15T15:34:10;22.50;58.20
74153;DHT22;62505;46.070;14.492;2023-03-15T15:36:39;22.50;58.00
74153;DHT22;62505;46.070;14.492;2023-03-15T15:39:15;22.50;58.10